createdAt,value
2023-08-14T00:01:08.244Z,100.00
2023-08-14T00:04:21.364Z,100.00
2023-08-14T00:07:33.768Z,100.00
2023-08-14T00:10:46.611Z,100.00
2023-08-14T00:13:59.016Z,100.00
2023-08-14T00:17:11.736Z,100.00
2023-08-14T00:20:24.124Z,100.00
2023-08-14T00:23:36.899Z,100.00
2023-08-14T00:26:49.308Z,100.00
2023-08-14T00:30:02.443Z,100.00
2023-08-14T00:33:14.847Z,100.00
2023-08-14T00:36:27.592Z,100.00
2023-08-14T00:39:39.974Z,100.00
2023-08-14T00:42:52.727Z,100.00
2023-08-14T00:46:05.225Z,100.00
2023-08-14T00:49:17.933Z,100.00
2023-08-14T00:52:33.041Z,100.00
2023-08-14T00:55:46.185Z,100.00
2023-08-14T00:58:58.598Z,100.00
2023-08-14T01:02:11.297Z,100.00
2023-08-14T01:05:24.791Z,100.00
2023-08-14T01:08:37.509Z,100.00
2023-08-14T01:12:08.376Z,100.00
2023-08-14T01:15:37.874Z,100.00
2023-08-14T01:18:50.293Z,100.00
2023-08-14T01:22:44.585Z,100.00
2023-08-14T01:25:57.081Z,100.00
2023-08-14T01:29:09.834Z,100.00
2023-08-14T01:32:22.189Z,100.00
2023-08-14T01:35:45.262Z,100.00
2023-08-14T01:39:08.720Z,100.00
2023-08-14T01:42:32.243Z,100.00
2023-08-14T01:45:44.615Z,100.00
2023-08-14T01:48:57.473Z,100.00
2023-08-14T01:52:09.886Z,100.00
2023-08-14T01:55:24.474Z,100.00
2023-08-14T01:58:36.903Z,100.00
2023-08-14T02:01:49.620Z,100.00
2023-08-14T02:05:02.335Z,100.00
2023-08-14T02:08:15.506Z,100.00
2023-08-14T02:11:28.207Z,100.00
2023-08-14T02:14:40.657Z,100.00
2023-08-14T02:17:53.359Z,100.00
2023-08-14T02:21:05.772Z,100.00
2023-08-14T02:24:18.467Z,100.00
2023-08-14T02:27:30.857Z,100.00
2023-08-14T02:30:44.888Z,100.00
2023-08-14T02:34:01.810Z,100.00
2023-08-14T02:37:15.121Z,100.00
2023-08-14T02:40:27.556Z,100.00
2023-08-14T02:43:40.629Z,100.00
2023-08-14T02:46:54.845Z,100.00
2023-08-14T02:50:07.820Z,100.00
2023-08-14T02:53:20.304Z,100.00
2023-08-14T02:56:33.025Z,100.00
2023-08-14T02:59:45.402Z,100.00
2023-08-14T03:02:58.159Z,100.00
2023-08-14T03:06:10.607Z,100.00
2023-08-14T03:09:23.286Z,100.00
2023-08-14T03:12:35.747Z,100.00
2023-08-14T03:15:48.444Z,100.00
2023-08-14T03:19:00.900Z,100.00
2023-08-14T03:22:13.878Z,100.00
2023-08-14T03:25:27.194Z,100.00
2023-08-14T03:28:40.007Z,100.00
2023-08-14T03:31:52.449Z,100.00
2023-08-14T03:35:05.667Z,100.00
2023-08-14T03:38:18.584Z,100.00
2023-08-14T03:41:31.262Z,100.00
2023-08-14T03:44:43.894Z,100.00
2023-08-14T03:47:56.626Z,100.00
2023-08-14T03:51:09.485Z,100.00
2023-08-14T03:54:23.294Z,100.00
2023-08-14T03:57:38.627Z,100.00
2023-08-14T04:00:52.295Z,100.00
2023-08-14T04:04:05.117Z,100.00
2023-08-14T04:07:17.488Z,100.00
2023-08-14T04:10:30.141Z,100.00
2023-08-14T04:13:42.557Z,100.00
2023-08-14T04:16:57.784Z,100.00
2023-08-14T04:20:10.852Z,100.00
2023-08-14T04:23:24.224Z,100.00
2023-08-14T04:26:38.042Z,100.00
2023-08-14T04:29:50.840Z,100.00
2023-08-14T04:33:03.362Z,100.00
2023-08-14T04:36:16.774Z,100.00
2023-08-14T04:39:29.252Z,100.00
2023-08-14T04:42:42.161Z,100.00
2023-08-14T04:45:54.646Z,100.00
2023-08-14T04:49:07.345Z,100.00
2023-08-14T04:52:23.273Z,100.00
2023-08-14T04:55:36.838Z,100.00
2023-08-14T04:58:49.231Z,100.00
2023-08-14T05:02:01.972Z,100.00
2023-08-14T05:05:15.389Z,100.00
2023-08-14T05:08:29.039Z,100.00
2023-08-14T05:11:41.396Z,100.00
2023-08-14T05:14:54.913Z,100.00
2023-08-14T05:18:07.697Z,100.00
2023-08-14T05:21:20.462Z,100.00
2023-08-14T05:24:32.838Z,100.00
2023-08-14T05:27:45.796Z,100.00
2023-08-14T05:30:58.995Z,100.00
2023-08-14T05:34:11.675Z,100.00
2023-08-14T05:37:24.078Z,100.00
2023-08-14T05:40:36.772Z,100.00
2023-08-14T05:43:50.047Z,100.00
2023-08-14T05:47:02.801Z,100.00
2023-08-14T05:50:15.214Z,100.00
2023-08-14T05:53:27.985Z,100.00
2023-08-14T05:56:40.398Z,100.00
2023-08-14T05:59:53.141Z,100.00
2023-08-14T06:03:05.864Z,100.00
2023-08-14T06:06:18.552Z,100.00
2023-08-14T06:09:30.969Z,98.61
2023-08-14T06:12:43.856Z,97.97
2023-08-14T06:15:56.272Z,95.26
2023-08-14T06:19:10.111Z,94.21
2023-08-14T06:22:22.588Z,92.67
2023-08-14T06:25:35.315Z,92.41
2023-08-14T06:28:47.783Z,89.84
2023-08-14T06:32:01.914Z,88.79
2023-08-14T06:35:14.301Z,85.28
2023-08-14T06:38:26.998Z,82.78
2023-08-14T06:41:39.428Z,81.60
2023-08-14T06:44:52.253Z,81.43
2023-08-14T06:48:05.116Z,80.67
2023-08-14T06:51:17.976Z,78.64
2023-08-14T06:54:30.375Z,80.46
2023-08-14T06:57:43.011Z,79.81
2023-08-14T07:00:56.581Z,78.79
2023-08-14T07:04:09.316Z,77.42
2023-08-14T07:07:21.689Z,78.23
2023-08-14T07:10:34.307Z,77.64
2023-08-14T07:13:49.019Z,77.35
2023-08-14T07:17:01.805Z,76.48
2023-08-14T07:20:15.489Z,77.76
2023-08-14T07:23:28.154Z,78.25
2023-08-14T07:26:41.921Z,78.92
2023-08-14T07:29:54.776Z,79.45
2023-08-14T07:33:11.910Z,76.21
2023-08-14T07:36:24.557Z,75.57
2023-08-14T07:39:36.986Z,75.25
2023-08-14T07:42:49.648Z,75.95
2023-08-14T07:46:02.036Z,74.97
2023-08-14T07:49:14.712Z,75.31
2023-08-14T07:52:29.022Z,73.60
2023-08-14T07:55:42.992Z,73.33
2023-08-14T07:58:55.452Z,74.06
2023-08-14T08:02:08.124Z,72.98
2023-08-14T08:05:21.134Z,71.38
2023-08-14T08:08:33.621Z,70.06
2023-08-14T08:11:46.271Z,70.22
2023-08-14T08:14:58.661Z,69.88
2023-08-14T08:18:11.456Z,68.17
2023-08-14T08:21:24.225Z,69.73
2023-08-14T08:24:37.083Z,68.74
2023-08-14T08:27:49.540Z,67.58
2023-08-14T08:31:03.488Z,65.31
2023-08-14T08:34:15.854Z,64.68
2023-08-14T08:37:28.969Z,63.01
2023-08-14T08:40:42.989Z,64.02
2023-08-14T08:44:01.534Z,62.99
2023-08-14T08:47:16.888Z,62.59
2023-08-14T08:50:29.644Z,62.83
2023-08-14T08:53:42.014Z,63.94
2023-08-14T08:56:56.814Z,62.76
2023-08-14T09:00:10.183Z,61.76
2023-08-14T09:03:23.422Z,61.35
2023-08-14T09:06:36.051Z,57.17
2023-08-14T09:09:48.815Z,57.73
2023-08-14T09:13:02.162Z,57.83
2023-08-14T09:16:16.057Z,57.82
2023-08-14T09:19:28.553Z,56.13
2023-08-14T09:22:41.262Z,53.80
2023-08-14T09:25:53.724Z,55.29
2023-08-14T09:29:06.422Z,53.01
2023-08-14T09:32:23.894Z,51.03
2023-08-14T09:35:37.038Z,51.23
2023-08-14T09:38:52.600Z,52.29
2023-08-14T09:42:05.365Z,50.58
2023-08-14T09:45:19.022Z,49.47
2023-08-14T09:48:45.909Z,48.82
2023-08-14T09:51:58.448Z,48.71
2023-08-14T09:55:12.215Z,48.49
2023-08-14T09:58:24.587Z,47.00
2023-08-14T10:01:37.209Z,48.22
2023-08-14T10:04:50.138Z,46.46
2023-08-14T10:08:02.530Z,47.29
2023-08-14T10:11:19.999Z,48.13
2023-08-14T10:14:32.666Z,48.00
2023-08-14T10:17:52.749Z,48.05
2023-08-14T10:21:05.723Z,47.24
2023-08-14T10:24:18.376Z,46.50
2023-08-14T10:27:31.313Z,47.34
2023-08-14T10:30:44.067Z,46.50
2023-08-14T10:33:59.704Z,45.35
2023-08-14T10:37:26.814Z,44.54
2023-08-14T10:40:39.257Z,45.57
2023-08-14T10:43:51.975Z,44.15
2023-08-14T10:47:08.815Z,44.56
2023-08-14T10:50:25.369Z,44.03
2023-08-14T10:53:37.879Z,44.02
2023-08-14T10:56:50.748Z,42.52
2023-08-14T11:00:03.406Z,41.90
2023-08-14T11:03:16.108Z,41.93
2023-08-14T11:06:29.533Z,40.36
2023-08-14T11:09:42.210Z,41.13
2023-08-14T11:12:55.071Z,40.44
2023-08-14T11:16:07.865Z,39.43
2023-08-14T11:19:20.390Z,39.42
2023-08-14T11:22:33.030Z,39.05
2023-08-14T11:25:45.446Z,39.19
2023-08-14T11:28:58.358Z,40.13
2023-08-14T11:32:10.829Z,39.42
2023-08-14T11:35:26.363Z,39.31
2023-08-14T11:38:38.785Z,39.68
2023-08-14T11:41:51.577Z,38.82
2023-08-14T11:45:05.083Z,38.43
2023-08-14T11:48:18.399Z,38.13
2023-08-14T11:51:30.877Z,38.39
2023-08-14T11:54:46.003Z,38.60
2023-08-14T11:58:00.670Z,38.56
2023-08-14T12:01:13.407Z,39.48
2023-08-14T12:04:26.118Z,38.91
2023-08-14T12:07:41.985Z,37.70
2023-08-14T12:10:54.474Z,38.50
2023-08-14T12:14:07.322Z,38.98
2023-08-14T12:17:21.111Z,37.98
2023-08-14T12:20:35.231Z,39.45
2023-08-14T12:23:49.790Z,37.84
2023-08-14T12:27:02.132Z,37.20
2023-08-14T12:30:15.267Z,36.75
2023-08-14T12:33:27.667Z,36.57
2023-08-14T12:36:40.348Z,36.45
2023-08-14T12:39:54.001Z,36.44
2023-08-14T12:43:06.935Z,36.44
2023-08-14T12:46:19.396Z,36.62
2023-08-14T12:49:37.791Z,37.28
2023-08-14T12:52:50.545Z,36.20
2023-08-14T12:56:04.452Z,35.76
2023-08-14T12:59:23.728Z,36.78
2023-08-14T13:02:37.378Z,37.67
2023-08-14T13:05:49.770Z,35.73
2023-08-14T13:09:02.495Z,35.87
2023-08-14T13:12:14.893Z,34.61
2023-08-14T13:15:28.487Z,35.81
2023-08-14T13:18:40.845Z,35.29
2023-08-14T13:21:53.497Z,33.67
2023-08-14T13:25:06.172Z,33.28
2023-08-14T13:28:18.837Z,33.13
2023-08-14T13:31:31.326Z,32.71
2023-08-14T13:34:43.964Z,31.37
2023-08-14T13:37:56.440Z,32.77
2023-08-14T13:41:10.952Z,32.57
2023-08-14T13:44:23.442Z,33.29
2023-08-14T13:47:43.925Z,32.60
2023-08-14T13:51:04.747Z,31.21
2023-08-14T13:54:17.550Z,31.25
2023-08-14T13:57:30.550Z,31.40
2023-08-14T14:00:43.206Z,31.35
2023-08-14T14:03:55.891Z,31.85
2023-08-14T14:07:08.230Z,33.36
2023-08-14T14:10:20.980Z,32.22
2023-08-14T14:13:33.729Z,31.17
2023-08-14T14:16:57.369Z,32.24
2023-08-14T14:20:10.829Z,31.11
2023-08-14T14:23:23.482Z,31.49
2023-08-14T14:26:35.830Z,31.67
2023-08-14T14:29:48.521Z,31.29
2023-08-14T14:33:02.130Z,29.57
2023-08-14T14:36:14.860Z,29.59
2023-08-14T14:39:27.310Z,28.99
2023-08-14T14:42:39.976Z,28.50
2023-08-14T14:45:52.336Z,28.25
2023-08-14T14:49:05.148Z,28.36
2023-08-14T14:52:17.513Z,28.68
2023-08-14T14:55:31.354Z,29.27
2023-08-14T14:58:43.812Z,28.68
2023-08-14T15:01:56.494Z,28.36
2023-08-14T15:05:21.822Z,27.56
2023-08-14T15:08:40.625Z,27.86
2023-08-14T15:11:52.982Z,27.46
2023-08-14T15:15:05.891Z,28.20
2023-08-14T15:18:18.260Z,28.53
2023-08-14T15:21:30.906Z,28.44
2023-08-14T15:24:43.340Z,28.65
2023-08-14T15:27:55.996Z,28.21
2023-08-14T15:31:08.486Z,28.80
2023-08-14T15:34:21.192Z,28.49
2023-08-14T15:37:33.602Z,28.27
2023-08-14T15:40:47.189Z,27.94
2023-08-14T15:43:59.690Z,27.55
2023-08-14T15:47:12.529Z,27.56
2023-08-14T15:50:24.944Z,28.16
2023-08-14T15:53:37.654Z,28.10
2023-08-14T15:56:50.052Z,28.06
2023-08-14T16:00:07.337Z,27.71
2023-08-14T16:03:19.598Z,27.93
2023-08-14T16:06:32.274Z,27.84
2023-08-14T16:09:45.389Z,28.71
2023-08-14T16:12:58.030Z,28.97
2023-08-14T16:16:10.540Z,28.90
2023-08-14T16:19:23.229Z,28.00
2023-08-14T16:22:35.640Z,27.69
2023-08-14T16:25:48.278Z,27.81
2023-08-14T16:29:00.646Z,28.24
2023-08-14T16:32:13.330Z,28.38
2023-08-14T16:35:25.976Z,28.58
2023-08-14T16:38:38.634Z,28.53
2023-08-14T16:41:51.032Z,28.99
2023-08-14T16:45:04.388Z,29.02
2023-08-14T16:48:19.568Z,29.82
2023-08-14T16:51:32.492Z,30.08
2023-08-14T16:54:44.905Z,30.47
2023-08-14T16:58:00.398Z,30.81
2023-08-14T17:01:12.836Z,31.30
2023-08-14T17:04:25.685Z,32.00
2023-08-14T17:07:38.161Z,32.41
2023-08-14T17:10:51.809Z,33.16
2023-08-14T17:14:04.808Z,33.58
2023-08-14T17:17:18.038Z,34.04
2023-08-14T17:20:30.617Z,34.78
2023-08-14T17:23:43.390Z,35.65
2023-08-14T17:26:56.916Z,36.06
2023-08-14T17:30:11.105Z,36.53
2023-08-14T17:33:23.778Z,37.31
2023-08-14T17:36:36.955Z,38.44
2023-08-14T17:39:49.383Z,43.64
2023-08-14T17:43:02.069Z,46.31
2023-08-14T17:46:14.741Z,48.25
2023-08-14T17:49:27.464Z,48.55
2023-08-14T17:52:39.869Z,49.97
2023-08-14T17:55:52.555Z,51.34
2023-08-14T17:59:04.952Z,52.16
2023-08-14T18:02:17.614Z,53.65
2023-08-14T18:05:30.253Z,54.92
2023-08-14T18:08:42.850Z,56.79
2023-08-14T18:11:55.574Z,57.28
2023-08-14T18:15:08.882Z,58.66
2023-08-14T18:18:21.600Z,59.91
2023-08-14T18:21:36.734Z,61.02
2023-08-14T18:24:49.663Z,60.91
2023-08-14T18:28:02.080Z,61.11
2023-08-14T18:31:14.774Z,62.21
2023-08-14T18:34:27.176Z,62.91
2023-08-14T18:37:40.042Z,63.87
2023-08-14T18:40:52.443Z,63.56
2023-08-14T18:44:05.702Z,63.05
2023-08-14T18:47:18.301Z,62.88
2023-08-14T18:50:31.300Z,65.03
2023-08-14T18:53:44.219Z,65.68
2023-08-14T18:56:56.864Z,67.06
2023-08-14T19:00:11.130Z,68.10
2023-08-14T19:03:23.774Z,69.51
2023-08-14T19:06:36.153Z,71.13
2023-08-14T19:09:48.917Z,72.61
2023-08-14T19:13:01.418Z,73.17
2023-08-14T19:16:14.134Z,74.84
2023-08-14T19:19:26.615Z,75.61
2023-08-14T19:22:39.323Z,76.59
2023-08-14T19:25:52.232Z,76.21
2023-08-14T19:29:04.972Z,76.56
2023-08-14T19:32:17.336Z,76.67
2023-08-14T19:35:29.980Z,78.46
2023-08-14T19:38:42.328Z,78.75
2023-08-14T19:41:55.008Z,79.03
2023-08-14T19:45:08.917Z,78.87
2023-08-14T19:48:21.605Z,81.26
2023-08-14T19:51:34.280Z,79.40
2023-08-14T19:54:46.998Z,79.59
2023-08-14T19:57:59.371Z,80.99
2023-08-14T20:01:12.290Z,80.34
2023-08-14T20:04:25.161Z,79.90
2023-08-14T20:07:37.534Z,82.57
2023-08-14T20:10:50.277Z,79.91
2023-08-14T20:14:02.622Z,79.65
2023-08-14T20:17:15.451Z,80.29
2023-08-14T20:20:28.353Z,79.65
2023-08-14T20:23:41.144Z,80.65
2023-08-14T20:26:53.486Z,81.58
2023-08-14T20:30:06.577Z,81.20
2023-08-14T20:33:19.032Z,82.11
2023-08-14T20:36:31.751Z,82.72
2023-08-14T20:39:45.840Z,80.39
2023-08-14T20:42:58.575Z,79.37
2023-08-14T20:46:11.135Z,80.68
2023-08-14T20:49:23.872Z,79.23
2023-08-14T20:52:36.226Z,78.96
2023-08-14T20:55:49.000Z,78.19
2023-08-14T20:59:01.456Z,79.19
2023-08-14T21:02:15.164Z,77.87
2023-08-14T21:05:27.550Z,78.26
2023-08-14T21:08:40.221Z,78.76
2023-08-14T21:11:53.674Z,79.07
2023-08-14T21:15:06.738Z,79.43
2023-08-14T21:18:19.344Z,79.67
2023-08-14T21:21:32.028Z,79.63
2023-08-14T21:24:44.455Z,80.34
2023-08-14T21:27:57.451Z,80.37
2023-08-14T21:31:09.856Z,80.46
2023-08-14T21:34:22.611Z,80.03
2023-08-14T21:37:34.976Z,79.06
2023-08-14T21:40:47.709Z,79.80
2023-08-14T21:44:00.079Z,79.98
2023-08-14T21:47:12.713Z,80.31
2023-08-14T21:50:25.205Z,79.87
2023-08-14T21:53:37.990Z,81.10
2023-08-14T21:56:51.594Z,82.06
2023-08-14T22:00:05.653Z,81.82
2023-08-14T22:03:17.930Z,82.35
2023-08-14T22:06:30.645Z,82.28
2023-08-14T22:09:43.049Z,83.06
2023-08-14T22:12:55.743Z,85.04
2023-08-14T22:16:08.136Z,85.73
2023-08-14T22:19:20.824Z,83.18
2023-08-14T22:22:33.194Z,83.98
2023-08-14T22:25:45.879Z,84.49
2023-08-14T22:28:58.364Z,84.39
2023-08-14T22:32:10.985Z,85.81
2023-08-14T22:35:23.382Z,85.84
2023-08-14T22:38:36.129Z,85.06
2023-08-14T22:41:48.537Z,86.01
2023-08-14T22:45:01.566Z,86.62
2023-08-14T22:48:13.940Z,88.09
2023-08-14T22:51:27.124Z,90.17
2023-08-14T22:54:39.500Z,91.27
2023-08-14T22:57:55.877Z,89.67
2023-08-14T23:01:08.326Z,89.36
2023-08-14T23:04:21.338Z,89.12
2023-08-14T23:07:33.924Z,89.87
2023-08-14T23:10:46.737Z,91.74
2023-08-14T23:13:59.160Z,92.62
2023-08-14T23:17:11.790Z,92.22
2023-08-14T23:20:24.223Z,92.13
2023-08-14T23:23:36.868Z,92.33
2023-08-14T23:26:49.295Z,91.56
2023-08-14T23:30:01.911Z,90.68
2023-08-14T23:33:14.280Z,90.26
2023-08-14T23:36:26.935Z,90.66
2023-08-14T23:39:39.310Z,90.93
2023-08-14T23:42:51.980Z,90.09
2023-08-14T23:46:04.422Z,90.68
2023-08-14T23:49:17.104Z,91.53
2023-08-14T23:52:29.569Z,90.43
2023-08-14T23:55:45.971Z,90.80
2023-08-14T23:58:58.417Z,91.91
